Time;durP1;ratioP1;P1;durP2;ratioP2;P2;SDS_P1;SDS_P2;PMS_P1;PMS_P2;Temp;Humidity;BMP_temperature;BMP_pressure;BME280_temperature;BME280_humidity;BME280_pressure;Samples;Min_cycle;Max_cycle;Signal;HPM_P1;HPM_P2
2022/04/09 00:00:56;;;;;;;6.40;4.10;;;;;;;6.30;63.55;98301.08;105496;1284;22553;-71
2022/04/09 00:03:23;;;;;;;5.90;4.10;;;;;;;6.32;63.52;98299.12;105341;1284;24104;-74
2022/04/09 00:05:50;;;;;;;5.80;2.90;;;;;;;6.28;63.74;98293.98;105101;1284;22670;-75
2022/04/09 00:08:17;;;;;;;5.80;3.60;;;;;;;6.25;63.85;98287.95;105923;1277;22820;-75
2022/04/09 00:10:44;;;;;;;6.90;4.00;;;;;;;6.21;64.23;98283.15;105790;1278;24442;-82
2022/04/09 00:13:11;;;;;;;6.80;3.40;;;;;;;6.24;64.22;98280.63;106134;1277;25947;-76
2022/04/09 00:15:38;;;;;;;5.10;3.70;;;;;;;6.27;64.42;98278.29;106043;1277;22577;-78
2022/04/09 00:18:04;;;;;;;5.90;4.20;;;;;;;6.31;64.55;98273.29;106087;1277;24226;-73
2022/04/09 00:20:31;;;;;;;5.80;3.50;;;;;;;6.34;64.65;98273.20;106211;1277;24606;-75
2022/04/09 00:22:58;;;;;;;5.30;3.90;;;;;;;6.35;64.52;98273.50;106031;1277;22531;-72
2022/04/09 00:25:25;;;;;;;5.30;3.50;;;;;;;6.40;64.87;98270.77;105854;1279;22624;-72
2022/04/09 00:27:53;;;;;;;7.10;4.70;;;;;;;6.43;64.77;98265.64;105830;1279;24327;-74
2022/04/09 00:30:22;;;;;;;7.10;4.20;;;;;;;6.42;64.92;98262.34;105833;1277;25423;-76
2022/04/09 00:32:50;;;;;;;8.90;4.30;;;;;;;6.34;64.92;98255.36;105969;1277;22587;-73
2022/04/09 00:35:17;;;;;;;5.90;4.10;;;;;;;6.33;65.17;98257.14;105884;1277;25265;-75
2022/04/09 00:37:45;;;;;;;4.40;3.60;;;;;;;6.37;65.39;98251.63;105174;1285;22886;-77
2022/04/09 00:40:14;;;;;;;5.90;4.00;;;;;;;6.39;65.29;98251.73;105347;1282;24244;-78
2022/04/09 00:42:42;;;;;;;6.80;4.40;;;;;;;6.35;65.38;98246.08;105355;1282;23978;-77
2022/04/09 00:45:10;;;;;;;4.60;4.00;;;;;;;6.37;65.55;98247.27;105317;1282;22576;-75
2022/04/09 00:47:37;;;;;;;7.60;4.50;;;;;;;6.41;65.66;98250.83;105464;1282;23210;-76
2022/04/09 00:50:06;;;;;;;6.70;4.70;;;;;;;6.39;65.74;98246.49;105137;1284;24240;-77
2022/04/09 00:52:38;;;;;;;6.60;4.50;;;;;;;6.36;65.86;98248.85;105316;1284;25515;-75
2022/04/09 00:55:06;;;;;;;7.20;5.00;;;;;;;6.25;66.06;98247.39;104981;1287;22722;-80
2022/04/09 00:57:35;;;;;;;7.60;5.10;;;;;;;6.20;66.41;98246.83;105365;1281;22540;-76
2022/04/09 01:00:09;;;;;;;9.00;5.40;;;;;;;6.18;66.69;98247.05;105605;1281;22675;-73
2022/04/09 01:02:40;;;;;;;7.00;5.70;;;;;;;6.20;66.77;98252.41;105688;1281;25089;-74
2022/04/09 01:05:08;;;;;;;6.90;4.90;;;;;;;6.14;67.00;98253.96;105314;1281;25250;-74
2022/04/09 01:07:36;;;;;;;6.80;4.90;;;;;;;6.13;67.12;98256.42;105586;1281;22552;-74
2022/04/09 01:10:05;;;;;;;7.90;5.20;;;;;;;6.09;67.19;98253.21;105537;1281;25269;-75
2022/04/09 01:12:35;;;;;;;7.10;5.70;;;;;;;6.02;67.45;98247.44;105547;1277;25300;-75
2022/04/09 01:15:10;;;;;;;8.70;5.50;;;;;;;6.12;67.64;98254.36;106009;1277;22488;-74
2022/04/09 01:17:38;;;;;;;7.20;5.60;;;;;;;6.12;67.77;98257.84;105175;1284;22562;-80
2022/04/09 01:20:17;;;;;;;7.60;5.70;;;;;;;6.13;67.97;98261.14;105385;1284;25435;-76
2022/04/09 01:22:45;;;;;;;9.40;5.30;;;;;;;6.14;67.99;98257.63;105732;1284;25385;-74
2022/04/09 01:25:12;;;;;;;8.60;5.50;;;;;;;6.09;67.91;98259.84;105691;1284;22559;-78
2022/04/09 01:27:40;;;;;;;8.40;5.50;;;;;;;6.09;68.34;98268.06;105504;1284;22486;-75
2022/04/09 01:30:07;;;;;;;8.40;5.70;;;;;;;6.13;68.37;98266.73;105118;1284;22540;-79
2022/04/09 01:32:35;;;;;;;7.50;5.60;;;;;;;6.16;68.52;98266.67;105183;1284;25257;-79
2022/04/09 01:35:02;;;;;;;9.20;5.80;;;;;;;6.25;68.60;98269.59;105688;1281;25397;-76
2022/04/09 01:37:31;;;;;;;9.40;6.00;;;;;;;6.29;68.30;98268.42;106774;1277;22535;-75
2022/04/09 01:39:59;;;;;;;8.10;5.30;;;;;;;6.29;68.53;98264.07;106481;1277;22554;-74
2022/04/09 01:42:27;;;;;;;8.20;5.90;;;;;;;6.21;68.46;98250.98;106583;1277;22635;-76
2022/04/09 01:44:56;;;;;;;9.30;6.40;;;;;;;6.17;68.56;98242.52;106610;1278;22845;-74
2022/04/09 01:47:24;;;;;;;8.10;5.50;;;;;;;6.12;68.96;98252.61;107424;1277;25228;-73
2022/04/09 01:49:52;;;;;;;8.80;5.60;;;;;;;6.08;69.03;98258.81;107022;1278;25266;-83
2022/04/09 01:52:19;;;;;;;7.40;5.30;;;;;;;6.06;69.40;98257.48;106949;1278;26534;-72
2022/04/09 01:54:46;;;;;;;7.90;5.60;;;;;;;6.08;69.61;98250.26;106924;1277;25948;-72
2022/04/09 01:57:15;;;;;;;7.10;5.30;;;;;;;6.16;69.65;98257.74;106848;1277;22538;-71
2022/04/09 01:59:44;;;;;;;8.60;5.60;;;;;;;6.16;69.61;98257.91;107140;1277;22614;-73
2022/04/09 02:02:12;;;;;;;8.00;5.60;;;;;;;6.20;69.77;98257.83;106620;1277;25252;-74
2022/04/09 02:04:39;;;;;;;7.80;5.50;;;;;;;6.21;69.59;98256.07;106088;1278;26509;-74
2022/04/09 02:07:06;;;;;;;9.00;6.00;;;;;;;6.14;69.61;98254.29;105871;1277;25271;-77
2022/04/09 02:09:33;;;;;;;9.20;5.20;;;;;;;6.10;69.69;98250.02;106182;1278;22590;-76
2022/04/09 02:12:01;;;;;;;9.60;6.00;;;;;;;6.12;70.07;98243.52;106028;1277;25380;-75
2022/04/09 02:14:28;;;;;;;7.80;5.20;;;;;;;6.19;70.15;98241.61;105744;1278;22622;-74
2022/04/09 02:16:55;;;;;;;7.20;5.20;;;;;;;6.24;69.99;98238.49;105930;1277;22573;-83
2022/04/09 02:19:22;;;;;;;7.40;5.40;;;;;;;6.25;69.76;98237.59;106039;1277;25263;-75
2022/04/09 02:21:49;;;;;;;7.60;5.20;;;;;;;6.21;69.68;98239.11;106266;1278;22539;-75
2022/04/09 02:24:18;;;;;;;8.40;5.70;;;;;;;6.15;70.00;98237.50;105825;1278;22547;-77
2022/04/09 02:26:45;;;;;;;6.50;5.60;;;;;;;6.12;70.10;98230.59;105422;1277;24438;-77
2022/04/09 02:29:12;;;;;;;6.20;4.90;;;;;;;6.13;70.04;98234.58;105840;1277;25258;-78
2022/04/09 02:31:39;;;;;;;9.50;6.30;;;;;;;6.05;70.14;98236.35;105810;1278;22741;-76
2022/04/09 02:34:08;;;;;;;7.30;5.50;;;;;;;6.04;70.59;98240.20;105743;1279;22546;-76
2022/04/09 02:36:36;;;;;;;8.10;5.10;;;;;;;6.09;70.56;98242.20;105809;1277;25462;-76
2022/04/09 02:39:04;;;;;;;7.40;5.50;;;;;;;6.13;70.73;98239.65;105828;1278;24181;-76
2022/04/09 02:41:32;;;;;;;6.50;5.30;;;;;;;6.18;70.74;98237.08;105636;1278;24228;-78
2022/04/09 02:44:00;;;;;;;8.30;6.10;;;;;;;6.22;70.80;98236.98;106032;1277;22631;-77
2022/04/09 02:46:27;;;;;;;8.20;6.20;;;;;;;6.25;70.80;98239.52;105707;1278;22545;-74
2022/04/09 02:48:55;;;;;;;7.30;5.70;;;;;;;6.28;70.83;98231.76;105750;1278;22698;-76
2022/04/09 02:51:22;;;;;;;7.50;6.20;;;;;;;6.30;70.85;98227.67;105779;1278;22632;-75
2022/04/09 02:53:50;;;;;;;6.60;5.50;;;;;;;6.33;70.57;98236.17;105770;1278;25265;-79
2022/04/09 02:56:17;;;;;;;8.70;5.90;;;;;;;6.27;70.48;98244.03;105448;1281;25188;-76
2022/04/09 02:58:44;;;;;;;7.20;5.70;;;;;;;6.26;70.47;98247.89;105415;1282;25251;-75
2022/04/09 03:01:11;;;;;;;6.30;5.00;;;;;;;6.23;70.47;98248.66;105364;1281;24301;-78
2022/04/09 03:03:38;;;;;;;6.10;5.30;;;;;;;6.18;70.53;98241.27;105273;1282;22605;-73
2022/04/09 03:06:05;;;;;;;6.70;5.60;;;;;;;6.16;70.62;98237.48;105204;1281;22753;-75
2022/04/09 03:08:32;;;;;;;6.40;4.20;;;;;;;6.08;70.73;98236.28;105264;1281;22859;-76
2022/04/09 03:10:59;;;;;;;6.00;5.40;;;;;;;6.01;70.80;98238.70;105532;1281;26532;-79
2022/04/09 03:13:26;;;;;;;5.50;4.90;;;;;;;6.01;71.21;98239.55;105586;1281;22574;-77
2022/04/09 03:15:53;;;;;;;5.60;4.70;;;;;;;6.07;71.35;98244.52;105816;1277;24715;-74
2022/04/09 03:18:20;;;;;;;5.20;4.70;;;;;;;6.16;71.41;98244.11;106387;1277;23169;-81
2022/04/09 03:20:47;;;;;;;5.20;4.60;;;;;;;6.25;71.23;98243.89;105715;1278;24236;-78
2022/04/09 03:23:15;;;;;;;5.30;4.60;;;;;;;6.23;70.97;98245.88;106071;1276;25257;-76
2022/04/09 03:25:48;;;;;;;6.40;4.90;;;;;;;6.18;70.80;98243.38;105775;1277;25320;-73
2022/04/09 03:28:17;;;;;;;6.80;5.00;;;;;;;6.15;70.81;98245.70;106076;1277;25312;-74
2022/04/09 03:30:44;;;;;;;4.60;4.10;;;;;;;6.08;70.81;98246.59;105769;1276;22550;-73
2022/04/09 03:33:13;;;;;;;4.10;3.70;;;;;;;5.94;70.74;98249.17;105915;1277;25728;-73
2022/04/09 03:35:40;;;;;;;4.70;4.20;;;;;;;5.86;71.02;98256.88;105847;1278;22845;-73
2022/04/09 03:38:11;;;;;;;5.20;4.70;;;;;;;5.82;71.39;98253.13;105737;1277;26504;-72
2022/04/09 03:40:45;;;;;;;5.00;4.50;;;;;;;5.87;71.72;98253.72;105837;1277;25225;-74
2022/04/09 03:43:12;;;;;;;4.40;3.80;;;;;;;5.92;71.71;98254.98;105994;1277;24000;-72
2022/04/09 03:45:39;;;;;;;7.40;5.20;;;;;;;5.86;71.40;98255.84;105759;1277;26508;-71
2022/04/09 03:48:07;;;;;;;6.20;4.70;;;;;;;5.80;71.62;98256.84;105978;1278;25259;-73
2022/04/09 03:50:36;;;;;;;5.30;4.20;;;;;;;5.82;71.63;98256.80;106064;1277;25229;-70
2022/04/09 03:53:05;;;;;;;5.70;4.20;;;;;;;5.86;71.83;98259.85;106025;1277;23022;-73
2022/04/09 03:55:32;;;;;;;5.60;4.40;;;;;;;5.94;72.13;98261.05;105570;1281;22763;-71
2022/04/09 03:58:00;;;;;;;5.50;4.60;;;;;;;5.99;71.90;98256.41;105607;1281;25261;-74
2022/04/09 04:00:27;;;;;;;4.90;3.90;;;;;;;6.07;71.81;98267.41;105556;1283;26210;-74
2022/04/09 04:02:57;;;;;;;4.30;3.90;;;;;;;6.04;71.62;98270.62;105622;1281;25318;-77
2022/04/09 04:05:25;;;;;;;6.60;4.80;;;;;;;6.05;71.63;98270.77;105460;1282;22579;-75
2022/04/09 04:07:53;;;;;;;5.90;4.40;;;;;;;6.00;71.60;98271.25;105606;1281;22593;-73
2022/04/09 04:10:21;;;;;;;5.10;4.20;;;;;;;6.00;71.81;98273.32;105867;1281;25278;-74
2022/04/09 04:12:54;;;;;;;4.50;3.90;;;;;;;6.00;72.08;98278.39;105719;1281;22600;-76
2022/04/09 04:15:26;;;;;;;5.30;3.70;;;;;;;6.05;72.11;98280.19;107047;1277;25405;-77
2022/04/09 04:17:53;;;;;;;4.80;4.40;;;;;;;6.05;71.91;98281.42;106262;1277;25261;-77
2022/04/09 04:20:24;;;;;;;4.10;3.40;;;;;;;6.01;71.94;98288.66;105898;1278;25259;-77
2022/04/09 04:22:52;;;;;;;5.20;4.70;;;;;;;5.95;71.70;98292.33;105780;1278;22575;-76
2022/04/09 04:25:20;;;;;;;5.80;4.30;;;;;;;5.86;71.88;98297.06;105842;1277;25221;-76
2022/04/09 04:27:51;;;;;;;4.40;3.80;;;;;;;5.73;72.12;98304.35;105838;1277;25233;-81
2022/04/09 04:30:20;;;;;;;7.40;4.50;;;;;;;5.61;72.41;98308.98;105851;1277;25285;-82
2022/04/09 04:32:49;;;;;;;5.50;4.40;;;;;;;5.56;72.69;98314.66;106022;1276;26526;-81
2022/04/09 04:35:19;;;;;;;6.30;5.00;;;;;;;5.58;73.26;98319.52;105790;1277;22804;-79
2022/04/09 04:37:47;;;;;;;6.50;5.50;;;;;;;5.58;73.06;98330.17;105807;1278;22542;-78
2022/04/09 04:40:16;;;;;;;6.00;5.20;;;;;;;5.55;73.30;98333.03;105820;1278;22569;-80
2022/04/09 04:42:49;;;;;;;6.00;5.20;;;;;;;5.54;73.54;98334.63;105840;1277;22576;-79
2022/04/09 04:45:18;;;;;;;9.30;5.80;;;;;;;5.53;73.76;98344.24;105695;1278;22641;-79
2022/04/09 04:47:49;;;;;;;8.80;5.90;;;;;;;5.53;74.03;98345.11;105433;1278;22565;-78
2022/04/09 04:50:19;;;;;;;10.60;7.10;;;;;;;5.52;74.06;98339.36;106104;1277;24243;-80
2022/04/09 04:52:47;;;;;;;6.90;5.80;;;;;;;5.50;74.15;98339.08;105705;1278;22571;-80
2022/04/09 04:55:14;;;;;;;6.90;6.10;;;;;;;5.45;74.15;98339.70;105842;1278;25384;-80
2022/04/09 04:57:48;;;;;;;6.20;5.60;;;;;;;5.39;74.04;98336.52;105696;1278;22567;-80
2022/04/09 05:00:22;;;;;;;6.70;5.90;;;;;;;5.41;74.17;98340.14;105734;1277;25305;-77
2022/04/09 05:02:51;;;;;;;5.80;5.20;;;;;;;5.40;74.30;98343.99;105878;1277;22856;-80
2022/04/09 05:05:19;;;;;;;6.20;5.60;;;;;;;5.36;74.57;98353.16;106007;1277;22646;-80
2022/04/09 05:07:49;;;;;;;5.80;4.60;;;;;;;5.33;74.32;98353.75;107327;1277;25452;-81
2022/04/09 05:10:21;;;;;;;5.40;4.50;;;;;;;5.24;74.08;98352.87;107811;1277;22671;-80
2022/04/09 05:12:52;;;;;;;4.50;3.50;;;;;;;5.23;74.35;98365.46;107560;1277;22556;-80
2022/04/09 05:15:21;;;;;;;4.10;3.40;;;;;;;5.25;74.07;98369.77;106950;1276;25311;-83
2022/04/09 05:17:49;;;;;;;5.50;3.40;;;;;;;5.23;73.88;98371.39;106677;1276;22715;-88
2022/04/09 05:20:16;;;;;;;4.40;3.10;;;;;;;5.24;73.95;98383.59;106502;1277;22546;-86
2022/04/09 05:22:46;;;;;;;3.40;3.10;;;;;;;5.21;74.02;98385.21;106159;1277;22547;-86
2022/04/09 05:25:20;;;;;;;4.50;3.50;;;;;;;5.24;74.26;98390.92;106025;1278;22701;-84
2022/04/09 05:27:50;;;;;;;3.40;3.10;;;;;;;5.22;74.05;98391.31;105833;1277;22581;-87
2022/04/09 05:30:28;;;;;;;4.10;3.10;;;;;;;5.21;74.13;98389.06;105957;1277;22613;-84
2022/04/09 05:32:56;;;;;;;6.70;4.30;;;;;;;5.26;74.39;98389.31;106094;1276;22622;-85
2022/04/09 05:35:23;;;;;;;4.20;3.30;;;;;;;5.30;74.35;98391.50;106001;1277;22492;-86
2022/04/09 05:37:53;;;;;;;4.10;3.50;;;;;;;5.30;74.46;98390.11;106238;1277;25219;-91
2022/04/09 05:40:22;;;;;;;4.40;3.40;;;;;;;5.25;74.39;98381.11;106247;1278;22562;-88
2022/04/09 05:42:51;;;;;;;4.20;3.20;;;;;;;5.22;74.24;98376.12;106155;1277;22592;-85
2022/04/09 05:45:18;;;;;;;4.50;3.30;;;;;;;5.21;74.28;98374.38;106348;1277;22719;-85
2022/04/09 05:47:46;;;;;;;5.90;3.90;;;;;;;5.26;74.09;98384.41;108808;1276;22565;-83
2022/04/09 05:50:20;;;;;;;4.80;3.50;;;;;;;5.31;73.83;98377.69;108864;1277;22557;-83
2022/04/09 05:52:50;;;;;;;4.40;3.30;;;;;;;5.44;73.94;98386.87;108254;1278;23066;-83
2022/04/09 05:55:17;;;;;;;4.40;3.60;;;;;;;5.52;73.64;98380.74;106131;1278;22751;-81
2022/04/09 05:57:44;;;;;;;4.70;3.90;;;;;;;5.57;73.59;98386.77;106647;1275;22539;-82
2022/04/09 06:00:13;;;;;;;4.40;3.60;;;;;;;5.60;73.56;98382.52;108884;1276;22537;-80
2022/04/09 06:02:49;;;;;;;5.60;3.80;;;;;;;5.67;73.30;98382.37;108549;1276;25268;-80
2022/04/09 06:05:26;;;;;;;6.10;4.50;;;;;;;5.74;73.80;98383.98;107222;1277;22793;-82
2022/04/09 06:07:54;;;;;;;8.20;4.90;;;;;;;5.86;73.88;98381.09;106771;1278;25384;-80
2022/04/09 06:10:21;;;;;;;7.30;4.00;;;;;;;5.98;73.79;98387.11;106740;1277;22550;-82
2022/04/09 06:12:48;;;;;;;7.10;4.20;;;;;;;6.08;73.70;98385.89;105709;1281;25259;-84
2022/04/09 06:15:22;;;;;;;5.50;3.70;;;;;;;6.15;73.06;98394.27;105748;1281;22557;-81
2022/04/09 06:17:51;;;;;;;4.70;3.50;;;;;;;6.08;72.60;98397.91;105915;1281;25297;-80
2022/04/09 06:20:18;;;;;;;5.70;4.00;;;;;;;6.11;72.86;98400.31;105712;1281;23149;-78
2022/04/09 06:22:45;;;;;;;5.60;3.20;;;;;;;6.20;72.89;98409.38;105320;1281;22566;-78
2022/04/09 06:25:14;;;;;;;6.60;3.60;;;;;;;6.09;71.96;98407.18;105380;1282;22562;-81
2022/04/09 06:27:42;;;;;;;5.30;3.70;;;;;;;6.06;72.48;98414.74;105540;1281;24388;-80
2022/04/09 06:30:11;;;;;;;8.00;4.20;;;;;;;6.09;72.62;98410.84;105788;1278;22570;-83
2022/04/09 06:32:39;;;;;;;8.20;4.50;;;;;;;6.14;72.73;98411.95;105691;1278;22770;-80
2022/04/09 06:35:06;;;;;;;5.20;4.50;;;;;;;6.15;72.20;98411.75;106600;1277;22499;-77
2022/04/09 06:37:38;;;;;;;4.60;3.90;;;;;;;6.10;72.44;98412.58;105966;1278;22483;-80
2022/04/09 06:40:09;;;;;;;5.70;4.50;;;;;;;6.19;72.58;98413.40;106766;1277;22541;-79
2022/04/09 06:42:37;;;;;;;7.00;4.30;;;;;;;6.26;72.64;98415.53;108151;1277;22545;-79
2022/04/09 06:45:15;;;;;;;8.40;4.70;;;;;;;6.35;72.65;98415.14;107073;1277;22554;-83
2022/04/09 06:48:18;;;;;;;5.30;4.40;;;;;;;6.50;72.20;98418.98;105464;1284;24466;-79
2022/04/09 06:51:03;;;;;;;5.00;4.00;;;;;;;6.58;71.51;98421.95;106380;1278;24660;-79
2022/04/09 06:53:30;;;;;;;6.30;4.50;;;;;;;6.56;71.34;98417.80;105982;1284;22756;-80
2022/04/09 06:55:57;;;;;;;6.10;4.50;;;;;;;6.63;71.28;98415.52;106216;1281;22717;-77
2022/04/09 06:58:24;;;;;;;8.90;4.60;;;;;;;6.70;71.07;98417.09;106480;1282;22779;-77
2022/04/09 07:00:51;;;;;;;4.90;4.10;;;;;;;6.75;70.79;98421.70;107312;1281;24236;-76
2022/04/09 07:03:19;;;;;;;4.80;3.70;;;;;;;6.75;70.42;98418.55;107875;1282;24059;-76
2022/04/09 07:05:46;;;;;;;8.20;4.50;;;;;;;6.81;70.32;98425.39;107908;1282;22620;-76
2022/04/09 07:08:13;;;;;;;6.50;4.50;;;;;;;6.89;70.85;98427.48;107857;1282;25255;-77
2022/04/09 07:10:39;;;;;;;5.20;4.70;;;;;;;7.01;70.92;98432.59;107415;1282;22792;-79
2022/04/09 07:13:06;;;;;;;6.90;4.60;;;;;;;7.07;70.38;98438.91;106379;1277;22563;-78
2022/04/09 07:15:34;;;;;;;5.60;4.40;;;;;;;7.09;70.49;98448.13;106331;1277;24945;-79
2022/04/09 07:18:01;;;;;;;7.60;5.30;;;;;;;7.18;70.44;98451.40;105797;1277;267573;-77
2022/04/09 07:20:29;;;;;;;5.90;4.60;;;;;;;7.18;69.92;98458.23;105817;1278;22764;-79
2022/04/09 07:22:56;;;;;;;7.80;5.80;;;;;;;7.22;70.02;98464.61;106017;1277;24836;-79
2022/04/09 07:25:23;;;;;;;7.80;5.50;;;;;;;7.21;69.40;98475.67;105829;1279;23078;-79
2022/04/09 07:27:50;;;;;;;9.20;5.40;;;;;;;7.10;69.26;98481.56;105299;1284;22538;-81
2022/04/09 07:30:20;;;;;;;6.70;5.10;;;;;;;7.04;69.42;98489.05;105234;1284;25554;-81
2022/04/09 07:32:49;;;;;;;7.40;5.20;;;;;;;7.02;69.59;98494.52;105380;1284;22499;-80
2022/04/09 07:35:17;;;;;;;7.10;6.00;;;;;;;7.07;69.78;98500.36;105492;1284;22530;-76
2022/04/09 07:37:50;;;;;;;7.60;6.40;;;;;;;7.16;70.03;98506.59;105724;1284;22505;-80
2022/04/09 07:40:19;;;;;;;8.80;6.30;;;;;;;7.20;69.70;98514.03;105782;1284;26640;-83
2022/04/09 07:42:46;;;;;;;8.40;6.10;;;;;;;7.21;69.35;98518.20;105658;1284;22565;-81
2022/04/09 07:45:14;;;;;;;10.20;6.20;;;;;;;7.19;69.33;98518.43;105324;1285;25391;-83
2022/04/09 07:47:43;;;;;;;8.70;6.00;;;;;;;7.19;69.25;98515.45;105899;1281;25599;-82
2022/04/09 07:50:11;;;;;;;9.10;6.60;;;;;;;7.27;69.21;98522.42;105767;1279;22724;-86
2022/04/09 07:52:42;;;;;;;8.70;6.00;;;;;;;7.23;68.50;98523.05;105584;1281;22737;-83
2022/04/09 07:55:16;;;;;;;9.30;6.40;;;;;;;7.20;68.77;98535.89;105069;1282;22557;-86
2022/04/09 07:57:50;;;;;;;7.90;6.50;;;;;;;7.24;68.73;98541.42;105748;1284;25250;-83
2022/04/09 08:00:19;;;;;;;8.90;6.40;;;;;;;7.18;68.62;98549.45;105663;1284;25560;-84
2022/04/09 08:02:46;;;;;;;9.90;7.40;;;;;;;7.15;68.36;98558.09;105734;1281;22750;-82
2022/04/09 08:05:15;;;;;;;10.10;5.80;;;;;;;7.19;68.83;98563.94;105967;1282;22528;-81
2022/04/09 08:07:42;;;;;;;8.20;6.60;;;;;;;7.30;68.84;98565.79;106721;1281;25274;-82
2022/04/09 08:10:13;;;;;;;9.30;7.20;;;;;;;7.38;68.51;98565.94;107021;1281;22538;-81
2022/04/09 08:12:46;;;;;;;9.10;6.30;;;;;;;7.38;68.18;98579.58;107800;1281;25256;-81
2022/04/09 08:15:14;;;;;;;7.40;6.00;;;;;;;7.37;67.99;98583.27;107838;1278;22464;-80
2022/04/09 08:17:47;;;;;;;10.40;7.30;;;;;;;7.36;67.61;98584.71;108025;1276;22670;-80
2022/04/09 08:20:19;;;;;;;9.50;6.30;;;;;;;7.41;67.85;98597.02;108401;1277;22807;-81
2022/04/09 08:22:47;;;;;;;9.00;6.40;;;;;;;7.53;68.18;98602.15;107939;1277;22482;-80
2022/04/09 08:25:16;;;;;;;8.50;5.70;;;;;;;7.69;68.16;98605.79;107694;1277;24280;-79
2022/04/09 08:27:45;;;;;;;7.10;5.70;;;;;;;7.82;67.00;98604.41;106991;1277;25247;-81
2022/04/09 08:30:14;;;;;;;10.80;6.40;;;;;;;7.72;65.98;98608.86;105731;1284;25462;-81
2022/04/09 08:32:41;;;;;;;10.00;6.50;;;;;;;7.70;66.72;98609.61;107060;1282;24233;-81
2022/04/09 08:35:08;;;;;;;9.60;5.50;;;;;;;7.82;66.34;98612.30;107465;1283;22918;-79
2022/04/09 08:37:36;;;;;;;7.80;5.60;;;;;;;7.76;65.25;98618.58;107651;1284;22493;-80
2022/04/09 08:40:04;;;;;;;8.80;6.70;;;;;;;7.64;65.08;98625.89;106964;1284;24641;-83
2022/04/09 08:42:34;;;;;;;12.30;6.90;;;;;;;7.54;65.32;98625.27;105849;1284;26169;-85
2022/04/09 08:45:02;;;;;;;9.40;6.80;;;;;;;7.46;65.06;98635.97;106455;1284;24390;-81
2022/04/09 08:47:33;;;;;;;6.40;5.50;;;;;;;7.41;65.31;98643.97;106308;1280;24224;-79
2022/04/09 08:50:02;;;;;;;14.00;7.10;;;;;;;7.41;64.78;98648.88;106175;1277;24257;-82
2022/04/09 08:52:29;;;;;;;8.70;6.10;;;;;;;7.40;64.75;98650.10;106759;1276;22577;-81
2022/04/09 08:54:56;;;;;;;9.90;7.40;;;;;;;7.38;64.59;98649.80;105844;1278;25247;-78
2022/04/09 08:57:24;;;;;;;10.00;6.80;;;;;;;7.37;64.52;98656.14;105910;1278;25871;-85
2022/04/09 08:59:54;;;;;;;10.50;6.20;;;;;;;7.35;64.48;98652.35;106235;1277;22534;-87
2022/04/09 09:02:21;;;;;;;11.30;7.10;;;;;;;7.33;64.49;98654.49;105764;1279;23937;-84
2022/04/09 09:04:48;;;;;;;12.60;6.20;;;;;;;7.33;64.50;98655.73;105511;1282;25881;-78
2022/04/09 09:07:21;;;;;;;9.70;5.80;;;;;;;7.38;64.77;98649.30;105356;1282;22531;-78
2022/04/09 09:09:53;;;;;;;12.40;6.90;;;;;;;7.40;64.47;98650.48;105635;1281;22607;-84
2022/04/09 09:12:29;;;;;;;8.00;6.10;;;;;;;7.51;64.56;98654.23;105728;1281;26632;-77
2022/04/09 09:14:57;;;;;;;8.70;6.10;;;;;;;7.60;64.18;98644.57;105930;1282;22569;-82
2022/04/09 09:17:29;;;;;;;11.40;6.80;;;;;;;7.67;64.09;98648.59;106443;1281;22531;-83
2022/04/09 09:19:57;;;;;;;10.70;6.80;;;;;;;7.72;63.35;98652.70;106029;1277;22532;-90
2022/04/09 09:22:38;;;;;;;9.50;6.80;;;;;;;7.68;63.17;98656.08;106945;1278;22532;-90
2022/04/09 09:25:08;;;;;;;12.30;7.60;;;;;;;7.63;63.29;98665.33;106007;1285;22972;-87
2022/04/09 09:27:38;;;;;;;11.60;7.30;;;;;;;7.70;63.73;98688.83;106070;1282;22652;-87
2022/04/09 09:30:07;;;;;;;10.80;6.60;;;;;;;7.73;63.36;98683.31;106241;1282;23343;-88
2022/04/09 09:35:54;;;;;;;8.10;4.80;;;;;;;7.88;62.02;98698.36;107453;1282;26051;-90
2022/04/09 09:38:29;;;;;;;8.90;5.00;;;;;;;8.01;61.52;98692.09;106331;1281;25270;-86
2022/04/09 09:40:57;;;;;;;7.40;5.10;;;;;;;8.17;59.73;98681.84;106080;1282;22553;-87
2022/04/09 09:43:28;;;;;;;6.40;4.70;;;;;;;8.29;59.36;98682.21;106475;1278;25416;-90
2022/04/09 09:45:55;;;;;;;7.80;4.50;;;;;;;8.34;58.61;98685.08;106764;1278;22561;-87
2022/04/09 09:48:35;;;;;;;9.90;4.10;;;;;;;8.36;57.71;98687.29;106620;1279;22539;-92
2022/04/09 09:51:02;;;;;;;8.80;5.30;;;;;;;8.46;57.32;98692.80;106205;1278;25848;-82
2022/04/09 09:53:31;;;;;;;12.10;4.70;;;;;;;8.53;57.80;98701.59;106305;1278;22565;-89
2022/04/09 09:56:02;;;;;;;8.80;5.20;;;;;;;8.68;56.84;98710.50;106340;1278;22582;-87
2022/04/09 09:58:31;;;;;;;8.00;5.00;;;;;;;8.71;56.58;98715.66;106463;1279;22560;-90
2022/04/09 10:01:16;;;;;;;;;;;;;;;8.70;55.90;98716.23;106346;1278;26631;-85
2022/04/09 10:03:44;;;;;;;5.50;4.10;;;;;;;8.62;55.20;98723.10;106325;1278;22559;-87
2022/04/09 10:06:11;;;;;;;9.10;4.60;;;;;;;8.59;54.95;98732.32;106231;1278;24247;-88
2022/04/09 10:08:39;;;;;;;7.50;4.20;;;;;;;8.64;54.76;98734.79;106281;1279;25378;-85
2022/04/09 10:11:08;;;;;;;5.50;4.50;;;;;;;8.62;54.59;98737.86;106979;1279;22522;-88
2022/04/09 10:13:36;;;;;;;6.80;4.60;;;;;;;8.58;54.42;98736.92;106745;1277;22614;-86
2022/04/09 10:16:08;;;;;;;10.30;4.80;;;;;;;8.53;54.49;98730.53;106701;1279;22605;-88
2022/04/09 10:18:36;;;;;;;6.40;3.20;;;;;;;8.46;52.86;98740.36;106635;1279;24395;-83
2022/04/09 10:21:05;;;;;;;5.30;3.00;;;;;;;8.31;51.44;98746.36;106975;1276;22538;-83
2022/04/09 10:23:34;;;;;;;5.80;3.00;;;;;;;8.16;51.46;98752.17;106539;1279;24224;-83
2022/04/09 10:26:02;;;;;;;5.80;3.20;;;;;;;8.13;51.08;98758.21;106367;1279;24254;-89
2022/04/09 10:28:31;;;;;;;8.50;3.40;;;;;;;8.21;51.80;98770.80;106518;1279;25461;-85
2022/04/09 10:30:59;;;;;;;5.10;3.10;;;;;;;8.38;51.40;98774.95;106119;1277;24523;-79
2022/04/09 10:33:30;;;;;;;5.20;3.40;;;;;;;8.44;51.14;98769.17;105961;1279;22689;-81
2022/04/09 10:36:01;;;;;;;5.90;3.50;;;;;;;8.44;51.67;98753.38;106628;1279;22643;-82
2022/04/09 10:38:29;;;;;;;7.80;3.40;;;;;;;8.53;51.46;98767.89;106484;1277;24292;-78
2022/04/09 10:41:02;;;;;;;6.40;3.90;;;;;;;8.51;51.20;98773.56;105587;1281;24249;-80
2022/04/09 10:43:39;;;;;;;6.40;3.40;;;;;;;8.52;51.48;98777.74;105808;1281;25251;-81
2022/04/09 10:46:17;;;;;;;7.00;3.60;;;;;;;8.63;51.54;98787.84;105723;1281;22533;-75
2022/04/09 10:48:47;;;;;;;5.30;3.80;;;;;;;8.71;51.06;98788.49;105871;1281;24397;-86
2022/04/09 10:51:18;;;;;;;7.40;3.50;;;;;;;8.87;51.42;98793.16;105666;1281;22630;-77
2022/04/09 10:53:50;;;;;;;3.40;2.40;;;;;;;9.09;50.61;98792.02;105097;1285;24507;-81
2022/04/09 10:56:30;;;;;;;6.40;3.30;;;;;;;9.21;49.77;98796.44;106630;1285;22575;-89
2022/04/09 10:59:18;;;;;;;7.40;3.20;;;;;;;9.41;50.30;98799.89;106210;1284;23207;-82
2022/04/09 11:01:50;;;;;;;6.80;3.20;;;;;;;9.54;48.98;98806.15;105421;1287;24294;-77
2022/04/09 11:04:36;;;;;;;4.80;2.60;;;;;;;9.55;47.75;98809.28;104971;1287;24231;-76
2022/04/09 11:07:06;;;;;;;10.10;2.80;;;;;;;9.45;47.62;98811.02;104906;1287;23331;-78
2022/04/09 11:09:56;;;;;;;5.30;2.50;;;;;;;9.35;47.31;98800.23;104891;1288;23336;-81
2022/04/09 11:12:25;;;;;;;4.40;3.00;;;;;;;9.30;46.68;98813.02;105146;1282;25477;-79
2022/04/09 11:15:03;;;;;;;7.10;3.30;;;;;;;9.28;47.39;98815.20;105504;1282;24252;-80
2022/04/09 11:17:32;;;;;;;6.10;2.20;;;;;;;9.26;46.94;98823.30;105205;1282;22561;-77
2022/04/09 11:20:12;;;;;;;4.40;2.70;;;;;;;9.22;45.87;98819.77;105524;1279;23920;-80
2022/04/09 11:22:48;;;;;;;5.40;3.40;;;;;;;9.20;46.67;98833.86;105804;1279;25274;-79
2022/04/09 11:25:24;;;;;;;4.80;2.90;;;;;;;9.15;47.05;98840.48;106116;1278;25974;-81
2022/04/09 11:27:52;;;;;;;4.60;2.60;;;;;;;9.10;47.24;98838.34;106603;1279;22563;-82
2022/04/09 11:30:20;;;;;;;4.90;2.50;;;;;;;9.10;47.31;98841.84;105807;1282;23938;-82
2022/04/09 11:32:48;;;;;;;5.10;3.30;;;;;;;9.05;47.29;98841.66;106295;1281;22699;-80
2022/04/09 11:35:24;;;;;;;5.90;3.10;;;;;;;9.15;47.42;98856.83;106633;1281;24244;-85
2022/04/09 11:37:52;;;;;;;8.20;3.60;;;;;;;9.11;46.17;98859.75;106556;1281;22569;-79
2022/04/09 11:40:21;;;;;;;5.10;3.00;;;;;;;9.03;46.50;98860.84;106289;1281;25233;-80
2022/04/09 11:42:51;;;;;;;4.40;3.20;;;;;;;9.00;46.66;98864.79;106049;1282;25247;-81
2022/04/09 11:45:29;;;;;;;4.10;2.60;;;;;;;9.03;46.79;98870.14;105941;1281;23264;-79
2022/04/09 11:47:58;;;;;;;3.70;2.80;;;;;;;9.01;46.60;98877.02;106060;1279;23185;-76